createdAt,value
2022-10-08T00:01:35.361Z,9.10
2022-10-08T00:04:03.530Z,9.10
2022-10-08T00:06:31.773Z,8.98
2022-10-08T00:09:05.605Z,9.05
2022-10-08T00:11:36.725Z,9.01
2022-10-08T00:14:03.934Z,8.98
2022-10-08T00:16:31.685Z,8.96
2022-10-08T00:19:01.866Z,9.01
2022-10-08T00:21:31.765Z,8.96
2022-10-08T00:23:59.077Z,8.90
2022-10-08T00:26:27.656Z,8.95
2022-10-08T00:28:57.266Z,9.00
2022-10-08T00:31:29.538Z,9.00
2022-10-08T00:33:57.557Z,8.86
2022-10-08T00:36:27.213Z,8.91
2022-10-08T00:38:57.839Z,8.88
2022-10-08T00:41:26.673Z,8.74
2022-10-08T00:43:55.746Z,8.68
2022-10-08T00:46:41.635Z,8.66
2022-10-08T00:49:11.645Z,8.75
2022-10-08T00:51:50.911Z,8.63
2022-10-08T00:54:19.345Z,8.67
2022-10-08T00:56:49.056Z,8.74
2022-10-08T00:59:16.931Z,8.63
2022-10-08T01:01:44.166Z,8.65
2022-10-08T01:04:12.185Z,8.54
2022-10-08T01:06:48.894Z,8.54
2022-10-08T01:09:19.715Z,8.55
2022-10-08T01:11:55.386Z,8.53
2022-10-08T01:14:39.495Z,8.37
2022-10-08T01:17:33.533Z,8.36
2022-10-08T01:20:39.327Z,8.32
2022-10-08T01:23:40.079Z,8.41
2022-10-08T01:26:15.953Z,8.41
2022-10-08T01:28:43.718Z,8.48
2022-10-08T01:31:21.486Z,8.37
2022-10-08T01:33:52.592Z,8.26
2022-10-08T01:36:21.426Z,8.39
2022-10-08T01:38:54.964Z,8.27
2022-10-08T01:41:25.107Z,8.28
2022-10-08T01:43:59.586Z,8.30
2022-10-08T01:46:28.627Z,8.30
2022-10-08T01:49:01.266Z,8.30
2022-10-08T01:51:32.626Z,8.27
2022-10-08T01:54:02.370Z,8.28
2022-10-08T01:56:29.945Z,8.10
2022-10-08T01:59:09.115Z,8.14
2022-10-08T02:01:41.705Z,8.20
2022-10-08T02:04:26.936Z,8.23
2022-10-08T02:06:58.195Z,8.19
2022-10-08T02:09:27.056Z,8.13
2022-10-08T02:11:54.246Z,8.05
2022-10-08T02:14:25.969Z,8.04
2022-10-08T02:17:05.836Z,8.08
2022-10-08T02:19:38.576Z,8.08
2022-10-08T02:22:06.685Z,7.93
2022-10-08T02:24:44.337Z,8.00
2022-10-08T02:27:12.842Z,7.94
2022-10-08T02:29:46.377Z,7.92
2022-10-08T02:32:46.612Z,7.89
2022-10-08T02:35:56.985Z,7.92
2022-10-08T02:38:29.965Z,7.91
2022-10-08T02:40:58.993Z,7.93
2022-10-08T02:43:29.502Z,7.91
2022-10-08T02:46:15.208Z,7.80
2022-10-08T02:48:45.845Z,7.75
2022-10-08T02:51:14.365Z,7.87
2022-10-08T02:53:41.564Z,7.78
2022-10-08T02:56:11.105Z,7.77
2022-10-08T02:58:38.035Z,7.80
2022-10-08T03:01:14.141Z,7.77
2022-10-08T03:03:44.846Z,7.71
2022-10-08T03:06:12.652Z,7.68
2022-10-08T03:08:43.698Z,7.69
2022-10-08T03:11:11.305Z,7.63
2022-10-08T03:13:40.615Z,7.63
2022-10-08T03:16:09.046Z,7.64
2022-10-08T03:18:37.825Z,7.53
2022-10-08T03:21:05.273Z,7.53
2022-10-08T03:23:31.966Z,7.61
2022-10-08T03:25:58.675Z,7.50
2022-10-08T03:28:25.355Z,7.58
2022-10-08T03:30:52.138Z,7.62
2022-10-08T03:33:19.365Z,7.59
2022-10-08T03:35:47.055Z,7.46
2022-10-08T03:38:18.057Z,7.56
2022-10-08T03:40:54.846Z,7.48
2022-10-08T03:43:22.303Z,7.53
2022-10-08T03:45:53.376Z,7.59
2022-10-08T03:48:21.825Z,7.66
2022-10-08T03:50:57.410Z,7.70
2022-10-08T03:53:25.313Z,7.68
2022-10-08T03:55:52.284Z,7.67
2022-10-08T03:58:19.597Z,7.68
2022-10-08T04:01:07.889Z,7.70
2022-10-08T04:03:34.726Z,7.68
2022-10-08T04:06:01.413Z,7.69
2022-10-08T04:08:28.547Z,7.71
2022-10-08T04:10:55.245Z,7.69
2022-10-08T04:13:22.461Z,7.64
2022-10-08T04:15:50.807Z,7.75
2022-10-08T04:18:18.303Z,7.74
2022-10-08T04:20:45.174Z,7.73
2022-10-08T04:23:11.734Z,7.76
2022-10-08T04:25:38.394Z,7.70
2022-10-08T04:28:06.052Z,7.63
2022-10-08T04:30:32.705Z,7.61
2022-10-08T04:32:59.330Z,7.67
2022-10-08T04:35:26.127Z,7.75
2022-10-08T04:37:52.704Z,7.77
2022-10-08T04:40:19.547Z,7.68
2022-10-08T04:42:51.018Z,7.79
2022-10-08T04:45:17.683Z,7.78
2022-10-08T04:47:44.340Z,7.67
2022-10-08T04:50:11.088Z,7.62
2022-10-08T04:52:37.627Z,7.57
2022-10-08T04:55:04.619Z,7.19
2022-10-08T04:57:31.817Z,7.30
2022-10-08T05:00:17.066Z,7.33
2022-10-08T05:02:45.953Z,7.30
2022-10-08T05:05:12.842Z,7.29
2022-10-08T05:07:39.360Z,7.24
2022-10-08T05:10:06.468Z,7.23
2022-10-08T05:12:33.211Z,7.19
2022-10-08T05:14:59.801Z,7.28
2022-10-08T05:17:26.465Z,7.43
2022-10-08T05:19:53.039Z,7.57
2022-10-08T05:22:19.642Z,7.49
2022-10-08T05:24:46.192Z,7.45
2022-10-08T05:27:12.752Z,7.59
2022-10-08T05:29:39.420Z,7.55
2022-10-08T05:32:06.090Z,7.49
2022-10-08T05:34:32.772Z,7.51
2022-10-08T05:36:59.362Z,7.60
2022-10-08T05:39:26.076Z,7.56
2022-10-08T05:41:53.391Z,7.54
2022-10-08T05:44:20.149Z,7.53
2022-10-08T05:46:46.811Z,7.52
2022-10-08T05:49:19.537Z,7.62
2022-10-08T05:51:47.092Z,7.63
2022-10-08T05:54:13.807Z,7.71
2022-10-08T05:56:40.370Z,7.81
2022-10-08T05:59:07.096Z,7.70
2022-10-08T06:01:34.937Z,7.64
2022-10-08T06:04:08.720Z,7.69
2022-10-08T06:06:37.471Z,7.49
2022-10-08T06:09:04.244Z,7.70
2022-10-08T06:11:33.742Z,7.87
2022-10-08T06:14:01.542Z,7.83
2022-10-08T06:16:29.287Z,7.85
2022-10-08T06:18:56.272Z,7.95
2022-10-08T06:21:24.750Z,8.05
2022-10-08T06:23:56.411Z,8.15
2022-10-08T06:26:27.348Z,8.11
2022-10-08T06:28:56.444Z,8.20
2022-10-08T06:31:23.319Z,8.18
2022-10-08T06:33:50.191Z,8.27
2022-10-08T06:36:23.641Z,8.35
2022-10-08T06:38:51.561Z,8.44
2022-10-08T06:41:18.391Z,8.39
2022-10-08T06:43:45.375Z,8.63
2022-10-08T06:46:12.200Z,8.91
2022-10-08T06:48:39.202Z,8.90
2022-10-08T06:51:08.511Z,8.74
2022-10-08T06:53:35.449Z,8.81
2022-10-08T06:56:04.542Z,8.51
2022-10-08T06:58:31.710Z,8.55
2022-10-08T07:01:05.638Z,8.55
2022-10-08T07:03:33.204Z,8.63
2022-10-08T07:06:07.805Z,8.64
2022-10-08T07:08:36.267Z,8.67
2022-10-08T07:11:10.549Z,8.70
2022-10-08T07:13:37.734Z,8.89
2022-10-08T07:16:20.566Z,9.01
2022-10-08T07:18:49.799Z,9.03
2022-10-08T07:21:18.451Z,9.24
2022-10-08T07:23:45.572Z,9.21
2022-10-08T07:26:14.844Z,9.45
2022-10-08T07:28:44.297Z,9.29
2022-10-08T07:31:16.234Z,9.24
2022-10-08T07:33:43.123Z,9.42
2022-10-08T07:36:11.192Z,9.77
2022-10-08T07:38:38.405Z,9.78
2022-10-08T07:41:05.938Z,9.91
2022-10-08T07:43:33.072Z,9.84
2022-10-08T07:45:59.798Z,9.82
2022-10-08T07:48:32.938Z,10.17
2022-10-08T07:51:08.611Z,10.16
2022-10-08T07:53:36.049Z,10.44
2022-10-08T07:56:03.636Z,10.73
2022-10-08T07:58:30.386Z,11.25
2022-10-08T08:00:58.141Z,11.73
2022-10-08T08:03:25.752Z,11.76
2022-10-08T08:05:54.156Z,12.39
2022-10-08T08:08:24.902Z,13.04
2022-10-08T08:11:02.201Z,13.34
2022-10-08T08:13:33.027Z,13.26
2022-10-08T08:16:10.986Z,13.35
2022-10-08T08:18:39.649Z,13.20
2022-10-08T08:21:14.647Z,13.41
2022-10-08T08:23:43.940Z,13.38
2022-10-08T08:26:13.129Z,13.13
2022-10-08T08:28:40.320Z,13.50
2022-10-08T08:31:11.900Z,13.84
2022-10-08T08:33:39.392Z,13.48
2022-10-08T08:36:06.671Z,13.46
2022-10-08T08:38:37.210Z,14.05
2022-10-08T08:41:32.550Z,13.66
2022-10-08T08:44:00.447Z,13.44
2022-10-08T08:46:29.623Z,13.34
2022-10-08T08:48:57.631Z,13.09
2022-10-08T08:51:24.512Z,12.98
2022-10-08T08:53:51.309Z,13.17
2022-10-08T08:56:20.089Z,12.52
2022-10-08T08:59:06.252Z,12.78
2022-10-08T09:01:36.575Z,13.10
2022-10-08T09:04:17.722Z,13.24
2022-10-08T09:06:44.532Z,13.22
2022-10-08T09:09:36.998Z,13.60
2022-10-08T09:12:20.565Z,14.11
2022-10-08T09:14:57.340Z,14.16
2022-10-08T09:17:32.846Z,14.49
2022-10-08T09:20:00.782Z,14.50
2022-10-08T09:22:30.249Z,14.12
2022-10-08T09:25:03.952Z,14.26
2022-10-08T09:27:46.543Z,14.24
2022-10-08T09:30:28.869Z,14.15
2022-10-08T09:32:58.589Z,14.13
2022-10-08T09:35:25.433Z,13.91
2022-10-08T09:37:52.398Z,14.10
2022-10-08T09:40:27.398Z,14.59
2022-10-08T09:43:12.234Z,14.81
2022-10-08T09:45:44.814Z,15.20
2022-10-08T09:48:13.008Z,15.19
2022-10-08T09:50:50.053Z,15.49
2022-10-08T09:53:17.030Z,15.53
2022-10-08T09:55:51.078Z,15.40
2022-10-08T09:58:19.221Z,15.40
2022-10-08T10:01:04.263Z,15.45
2022-10-08T10:03:31.995Z,15.46
2022-10-08T10:06:02.181Z,15.48
2022-10-08T10:08:49.842Z,15.44
2022-10-08T10:11:33.771Z,15.33
2022-10-08T10:14:06.660Z,15.28
2022-10-08T10:16:36.850Z,15.68
2022-10-08T10:19:17.474Z,15.89
2022-10-08T10:21:56.322Z,16.30
2022-10-08T10:24:50.747Z,16.73
2022-10-08T10:27:39.909Z,16.76
2022-10-08T10:30:23.212Z,16.79
2022-10-08T10:32:50.203Z,17.80
2022-10-08T10:35:31.209Z,17.31
2022-10-08T10:38:07.960Z,16.97
2022-10-08T10:40:47.928Z,17.20
2022-10-08T10:43:41.902Z,17.50
2022-10-08T10:46:22.664Z,17.45
2022-10-08T10:48:49.992Z,17.62
2022-10-08T10:51:44.761Z,17.17
2022-10-08T10:54:44.578Z,17.32
2022-10-08T10:57:44.100Z,18.09
2022-10-08T11:00:46.592Z,18.34
2022-10-08T11:03:16.771Z,19.23
2022-10-08T11:05:45.612Z,19.10
2022-10-08T11:08:41.391Z,18.96
2022-10-08T11:11:32.902Z,19.01
2022-10-08T11:14:13.541Z,18.74
2022-10-08T11:16:52.170Z,19.28
2022-10-08T11:19:57.621Z,19.26
2022-10-08T11:22:40.728Z,19.77
2022-10-08T11:25:28.710Z,20.22
2022-10-08T11:28:10.667Z,19.59
2022-10-08T11:31:06.006Z,20.18
2022-10-08T11:33:33.144Z,20.12
2022-10-08T11:36:15.801Z,20.31
2022-10-08T11:38:42.416Z,20.58
2022-10-08T11:41:34.791Z,20.16
2022-10-08T11:44:02.914Z,20.33
2022-10-08T11:46:32.241Z,20.66
2022-10-08T11:49:14.320Z,20.59
2022-10-08T11:51:42.769Z,20.67
2022-10-08T11:54:38.760Z,21.19
2022-10-08T11:57:25.680Z,21.20
2022-10-08T12:00:00.336Z,21.33
2022-10-08T12:02:35.729Z,21.02
2022-10-08T12:05:23.898Z,21.50
2022-10-08T12:07:55.952Z,21.68
2022-10-08T12:10:31.795Z,21.32
2022-10-08T12:13:16.769Z,20.78
2022-10-08T12:15:44.470Z,20.61
2022-10-08T12:18:11.202Z,20.71
2022-10-08T12:20:39.430Z,20.64
2022-10-08T12:23:22.280Z,20.70
2022-10-08T12:26:01.313Z,20.59
2022-10-08T12:28:32.439Z,20.46
2022-10-08T12:31:01.905Z,20.22
2022-10-08T12:33:29.195Z,20.02
2022-10-08T12:36:35.428Z,20.06
2022-10-08T12:39:11.140Z,20.25
2022-10-08T12:41:46.545Z,20.45
2022-10-08T12:44:35.669Z,20.43
2022-10-08T12:47:34.953Z,20.49
2022-10-08T12:50:39.940Z,20.29
2022-10-08T12:53:07.890Z,20.29
2022-10-08T12:55:42.048Z,20.15
2022-10-08T12:58:33.061Z,20.29
2022-10-08T13:01:02.049Z,20.39
2022-10-08T13:03:28.810Z,20.19
2022-10-08T13:05:56.642Z,20.18
2022-10-08T13:08:29.448Z,20.22
2022-10-08T13:10:56.741Z,20.16
2022-10-08T13:13:32.139Z,20.07
2022-10-08T13:16:03.265Z,20.18
2022-10-08T13:18:30.992Z,20.01
2022-10-08T13:21:08.062Z,20.01
2022-10-08T13:23:43.180Z,19.83
2022-10-08T13:26:44.790Z,19.92
2022-10-08T13:29:23.945Z,19.81
2022-10-08T13:32:01.280Z,19.83
2022-10-08T13:34:31.547Z,19.83
2022-10-08T13:37:00.700Z,19.84
2022-10-08T13:39:31.106Z,19.77
2022-10-08T13:42:00.431Z,19.75
2022-10-08T13:44:27.956Z,19.70
2022-10-08T13:46:57.151Z,19.67
2022-10-08T13:49:30.469Z,19.78
2022-10-08T13:51:58.821Z,19.77
2022-10-08T13:54:31.401Z,19.77
2022-10-08T13:56:58.610Z,19.79
2022-10-08T13:59:30.229Z,19.81
2022-10-08T14:01:57.589Z,19.76
2022-10-08T14:04:24.348Z,19.76
2022-10-08T14:06:53.624Z,19.72
2022-10-08T14:09:25.570Z,19.79
2022-10-08T14:11:56.970Z,19.64
2022-10-08T14:14:24.540Z,19.61
2022-10-08T14:16:51.571Z,19.60
2022-10-08T14:19:20.540Z,19.58
2022-10-08T14:21:51.850Z,19.56
2022-10-08T14:24:18.700Z,19.57
2022-10-08T14:26:45.404Z,19.49
2022-10-08T14:29:12.100Z,19.31
2022-10-08T14:31:38.817Z,19.28
2022-10-08T14:34:05.651Z,19.26
2022-10-08T14:36:35.679Z,19.20
2022-10-08T14:39:02.630Z,19.10
2022-10-08T14:41:29.920Z,19.09
2022-10-08T14:43:57.229Z,19.07
2022-10-08T14:46:23.981Z,19.06
2022-10-08T14:48:50.739Z,19.00
2022-10-08T14:51:17.467Z,18.77
2022-10-08T14:53:44.197Z,18.70
2022-10-08T14:56:12.885Z,18.59
2022-10-08T14:58:40.344Z,18.58
2022-10-08T15:01:08.398Z,18.48
2022-10-08T15:03:35.301Z,18.26
2022-10-08T15:06:02.041Z,18.19
2022-10-08T15:08:29.051Z,18.19
2022-10-08T15:10:55.720Z,18.08
2022-10-08T15:13:22.634Z,17.98
2022-10-08T15:15:49.399Z,17.93
2022-10-08T15:18:16.064Z,17.97
2022-10-08T15:20:43.142Z,17.84
2022-10-08T15:23:10.629Z,17.80
2022-10-08T15:25:37.533Z,17.55
2022-10-08T15:28:04.774Z,17.51
2022-10-08T15:30:31.710Z,17.58
2022-10-08T15:33:03.015Z,17.79
2022-10-08T15:35:29.691Z,17.64
2022-10-08T15:37:56.348Z,17.71
2022-10-08T15:40:23.021Z,17.44
2022-10-08T15:42:51.330Z,17.50
2022-10-08T15:45:18.029Z,17.51
2022-10-08T15:47:44.711Z,17.32
2022-10-08T15:50:11.379Z,17.25
2022-10-08T15:52:39.551Z,17.20
2022-10-08T15:55:09.071Z,17.04
2022-10-08T15:57:35.740Z,17.20
2022-10-08T16:00:02.525Z,16.96
2022-10-08T16:02:29.354Z,16.91
2022-10-08T16:04:56.060Z,16.78
2022-10-08T16:07:22.770Z,16.78
2022-10-08T16:09:49.692Z,16.69
2022-10-08T16:12:16.380Z,16.65
2022-10-08T16:14:43.070Z,16.66
2022-10-08T16:17:09.820Z,16.75
2022-10-08T16:19:36.624Z,16.72
2022-10-08T16:22:04.081Z,16.66
2022-10-08T16:24:30.729Z,16.68
2022-10-08T16:26:57.450Z,16.53
2022-10-08T16:29:24.080Z,16.35
2022-10-08T16:31:50.741Z,16.37
2022-10-08T16:34:20.370Z,16.28
2022-10-08T16:36:48.402Z,16.40
2022-10-08T16:39:18.281Z,16.44
2022-10-08T16:41:45.780Z,16.23
2022-10-08T16:44:14.983Z,16.22
2022-10-08T16:46:44.195Z,16.00
2022-10-08T16:49:24.104Z,15.93
2022-10-08T16:52:04.776Z,15.93
2022-10-08T16:54:31.731Z,15.91
2022-10-08T16:56:58.601Z,15.75
2022-10-08T16:59:27.628Z,15.83
2022-10-08T17:01:56.751Z,15.72
2022-10-08T17:04:25.091Z,15.73
2022-10-08T17:06:51.991Z,15.75
2022-10-08T17:09:18.920Z,15.71
2022-10-08T17:11:45.808Z,15.69
2022-10-08T17:14:12.506Z,15.57
2022-10-08T17:16:40.330Z,15.67
2022-10-08T17:19:07.043Z,15.59
2022-10-08T17:21:35.229Z,15.55
2022-10-08T17:24:02.909Z,15.63
2022-10-08T17:26:30.936Z,15.49
2022-10-08T17:28:58.170Z,15.49
2022-10-08T17:31:26.855Z,15.48
2022-10-08T17:33:53.640Z,15.43
2022-10-08T17:36:23.890Z,15.51
2022-10-08T17:38:52.824Z,15.51
2022-10-08T17:41:28.088Z,15.45
2022-10-08T17:43:56.036Z,15.46
2022-10-08T17:46:24.459Z,15.60
2022-10-08T17:48:51.449Z,15.54
2022-10-08T17:51:20.111Z,15.42
2022-10-08T17:53:53.177Z,15.25
2022-10-08T17:56:20.430Z,15.24
2022-10-08T17:58:47.911Z,15.33
2022-10-08T18:01:20.143Z,15.32
2022-10-08T18:03:55.390Z,15.37
2022-10-08T18:06:22.692Z,15.25
2022-10-08T18:08:49.611Z,15.29
2022-10-08T18:11:16.830Z,15.35
2022-10-08T18:13:43.470Z,15.25
2022-10-08T18:16:15.445Z,15.28
2022-10-08T18:18:43.600Z,15.27
2022-10-08T18:21:12.086Z,15.24
2022-10-08T18:23:41.875Z,15.30
2022-10-08T18:26:17.798Z,15.21
2022-10-08T18:28:45.698Z,15.20
2022-10-08T18:31:13.414Z,15.21
2022-10-08T18:33:41.872Z,15.28
2022-10-08T18:36:12.369Z,15.21
2022-10-08T18:38:39.702Z,15.15
2022-10-08T18:41:14.115Z,15.10
2022-10-08T18:43:41.206Z,15.02
2022-10-08T18:46:07.946Z,14.97
2022-10-08T18:48:35.300Z,14.93
2022-10-08T18:51:07.507Z,15.02
2022-10-08T18:53:36.370Z,15.00
2022-10-08T18:56:04.480Z,14.98
2022-10-08T18:58:31.155Z,15.00
2022-10-08T19:00:57.951Z,14.99
2022-10-08T19:03:25.011Z,15.01
2022-10-08T19:05:52.247Z,14.93
2022-10-08T19:08:19.064Z,14.92
2022-10-08T19:10:46.147Z,14.87
2022-10-08T19:13:13.302Z,14.77
2022-10-08T19:15:40.270Z,14.85
2022-10-08T19:18:08.008Z,14.83
2022-10-08T19:20:35.997Z,14.84
2022-10-08T19:23:03.089Z,14.93
2022-10-08T19:25:33.967Z,14.86
2022-10-08T19:28:00.579Z,14.85
2022-10-08T19:30:32.579Z,14.85
2022-10-08T19:32:59.444Z,14.84
2022-10-08T19:35:26.078Z,14.77
2022-10-08T19:37:52.694Z,14.79
2022-10-08T19:40:19.269Z,14.94
2022-10-08T19:42:46.770Z,14.81
2022-10-08T19:45:13.708Z,14.63
2022-10-08T19:47:40.330Z,14.48
2022-10-08T19:50:07.313Z,14.53
2022-10-08T19:52:33.915Z,14.34
2022-10-08T19:55:00.579Z,14.39
2022-10-08T19:57:27.315Z,14.32
2022-10-08T19:59:54.000Z,14.21
2022-10-08T20:02:20.721Z,14.24
2022-10-08T20:04:47.964Z,14.17
2022-10-08T20:07:14.620Z,14.20
2022-10-08T20:09:41.268Z,14.11
2022-10-08T20:12:07.944Z,14.08
2022-10-08T20:14:34.715Z,14.01
2022-10-08T20:17:01.293Z,14.04
2022-10-08T20:19:27.926Z,13.95
2022-10-08T20:21:58.030Z,13.92
2022-10-08T20:24:24.800Z,13.93
2022-10-08T20:26:51.592Z,13.81
2022-10-08T20:29:20.601Z,13.86
2022-10-08T20:31:50.171Z,13.85
2022-10-08T20:34:19.281Z,13.97
2022-10-08T20:36:49.833Z,14.04
2022-10-08T20:39:18.003Z,13.90
2022-10-08T20:41:44.929Z,13.80
2022-10-08T20:44:11.730Z,13.81
2022-10-08T20:46:39.719Z,13.84
2022-10-08T20:49:07.109Z,13.77
2022-10-08T20:51:34.497Z,13.73
2022-10-08T20:54:04.631Z,13.75
2022-10-08T20:56:37.153Z,13.67
2022-10-08T20:59:06.479Z,13.65
2022-10-08T21:01:35.527Z,13.62
2022-10-08T21:04:02.355Z,13.55
2022-10-08T21:06:31.050Z,13.47
2022-10-08T21:08:59.042Z,13.49
2022-10-08T21:11:27.773Z,13.46
2022-10-08T21:13:54.874Z,13.34
2022-10-08T21:16:27.682Z,13.39
2022-10-08T21:18:56.349Z,13.33
2022-10-08T21:21:23.401Z,13.29
2022-10-08T21:23:50.008Z,13.33
2022-10-08T21:26:25.215Z,13.29
2022-10-08T21:28:54.757Z,13.29
2022-10-08T21:31:22.091Z,13.31
2022-10-08T21:33:51.417Z,13.28
2022-10-08T21:36:44.766Z,13.32
2022-10-08T21:39:15.688Z,13.24
2022-10-08T21:41:42.340Z,13.28
2022-10-08T21:44:09.229Z,13.18
2022-10-08T21:46:40.901Z,13.22
2022-10-08T21:49:15.940Z,13.30
2022-10-08T21:51:43.040Z,13.29
2022-10-08T21:54:11.221Z,13.28
2022-10-08T21:56:40.407Z,13.29
2022-10-08T21:59:08.620Z,13.34
2022-10-08T22:01:38.077Z,13.35
2022-10-08T22:04:08.912Z,13.36
2022-10-08T22:06:38.337Z,13.26
2022-10-08T22:09:06.988Z,13.21
2022-10-08T22:11:34.267Z,13.12
2022-10-08T22:14:00.842Z,13.08
2022-10-08T22:16:29.638Z,13.11
2022-10-08T22:18:56.900Z,13.06
2022-10-08T22:21:24.068Z,13.03
2022-10-08T22:23:51.959Z,12.95
2022-10-08T22:26:20.991Z,13.04
2022-10-08T22:28:48.179Z,13.05
2022-10-08T22:31:16.615Z,13.11
2022-10-08T22:33:43.387Z,13.06
2022-10-08T22:36:27.529Z,13.06
2022-10-08T22:38:54.607Z,13.02
2022-10-08T22:41:27.000Z,13.04
2022-10-08T22:43:54.223Z,13.10
2022-10-08T22:46:29.887Z,13.02
2022-10-08T22:48:58.509Z,13.08
2022-10-08T22:51:25.268Z,13.11
2022-10-08T22:53:52.040Z,12.95
2022-10-08T22:56:21.106Z,13.08
2022-10-08T22:58:48.728Z,13.07
2022-10-08T23:01:21.136Z,13.02
2022-10-08T23:03:48.705Z,12.99
2022-10-08T23:06:15.480Z,12.97
2022-10-08T23:08:43.204Z,12.98
2022-10-08T23:11:10.420Z,12.94
2022-10-08T23:13:37.074Z,12.94
2022-10-08T23:16:09.421Z,12.95
2022-10-08T23:18:38.585Z,12.92
2022-10-08T23:21:10.730Z,12.99
2022-10-08T23:23:37.670Z,12.93
2022-10-08T23:26:06.024Z,12.97
2022-10-08T23:28:34.735Z,12.94
2022-10-08T23:31:15.879Z,12.91
2022-10-08T23:33:44.248Z,12.88
2022-10-08T23:36:16.580Z,12.94
2022-10-08T23:38:43.284Z,12.88
2022-10-08T23:41:11.981Z,12.89
2022-10-08T23:43:49.236Z,12.93
2022-10-08T23:46:21.263Z,12.81
2022-10-08T23:48:49.091Z,12.81
2022-10-08T23:51:16.745Z,12.87
2022-10-08T23:53:43.448Z,12.83
2022-10-08T23:56:10.336Z,12.81
2022-10-08T23:58:37.330Z,12.77
